TAIP55 YMHB-YMHB
Flight info
| Callsign | TAIP55 |
|---|---|
| Flight time | N/A |
| Altitude | 1500 |
| Route | YMBH-VFR |
| Aircraft | EC35/L-G/C |
Departure
| Time | 2026-04-22 10:23 |
|---|---|
| Airport | Hobart International Airport (YMHB) |
Arrival
| Time | N/A |
|---|---|
| Airport | Hobart International Airport (YMHB) |
| Time | Latitude | Longitude | Altitude | Speed | Heading |
|---|---|---|---|---|---|
| 2026-04-22 10:21 | -42.82888 | 147.47544 | 70 ft | 0 kts | 193° |
| 2026-04-22 10:22 | -42.82895 | 147.47530 | 105 ft | 3 kts | 299° |
| 2026-04-22 10:22 | -42.82776 | 147.47495 | 212 ft | 34 kts | 330° |
| 2026-04-22 10:22 | -42.82558 | 147.47419 | 356 ft | 66 kts | 339° |
| 2026-04-22 10:23 | -42.81935 | 147.47341 | 336 ft | 111 kts | 352° |
| 2026-04-22 10:23 | -42.81165 | 147.47384 | 536 ft | 106 kts | 1° |
| 2026-04-22 10:23 | -42.80446 | 147.47502 | 768 ft | 104 kts | 3° |
| 2026-04-22 10:23 | -42.79723 | 147.47526 | 931 ft | 105 kts | 353° |
| 2026-04-22 10:24 | -42.79011 | 147.47242 | 1039 ft | 109 kts | 332° |
| 2026-04-22 10:24 | -42.78401 | 147.46625 | 1134 ft | 110 kts | 313° |
| 2026-04-22 10:24 | -42.77981 | 147.45749 | 1218 ft | 112 kts | 293° |
| 2026-04-22 10:24 | -42.77806 | 147.44721 | 1305 ft | 113 kts | 274° |
| 2026-04-22 10:25 | -42.77900 | 147.43668 | 1338 ft | 113 kts | 254° |
| 2026-04-22 10:25 | -42.78262 | 147.42729 | 1334 ft | 112 kts | 234° |
| 2026-04-22 10:25 | -42.79072 | 147.41869 | 1332 ft | 113 kts | 207° |
| 2026-04-22 10:25 | -42.79581 | 147.41656 | 1331 ft | 114 kts | 193° |
| 2026-04-22 10:26 | -42.80371 | 147.41662 | 1330 ft | 115 kts | 172° |
| 2026-04-22 10:26 | -42.81109 | 147.42039 | 1329 ft | 116 kts | 152° |
| 2026-04-22 10:26 | -42.81730 | 147.42764 | 1331 ft | 117 kts | 131° |
| 2026-04-22 10:26 | -42.82127 | 147.43718 | 1331 ft | 118 kts | 112° |
| 2026-04-22 10:27 | -42.82395 | 147.44776 | 1228 ft | 121 kts | 110° |
| 2026-04-22 10:27 | -42.82709 | 147.45855 | 1025 ft | 122 kts | 113° |
| 2026-04-22 10:27 | -42.83037 | 147.46842 | 885 ft | 108 kts | 117° |
| 2026-04-22 10:27 | -42.83364 | 147.47707 | 752 ft | 98 kts | 121° |
| 2026-04-22 10:28 | -42.83698 | 147.48465 | 795 ft | 88 kts | 127° |
| 2026-04-22 10:28 | -42.84051 | 147.49098 | 980 ft | 81 kts | 134° |
| 2026-04-22 10:28 | -42.84092 | 147.49160 | 994 ft | 80 kts | 135° |